createdAt,value
2019-05-15T00:00:53.821Z,1023.00
2019-05-15T00:01:53.820Z,1023.01
2019-05-15T00:02:53.814Z,1022.98
2019-05-15T00:03:53.776Z,1022.95
2019-05-15T00:04:53.804Z,1022.98
2019-05-15T00:05:53.879Z,1022.98
2019-05-15T00:06:53.824Z,1023.00
2019-05-15T00:07:53.838Z,1022.99
2019-05-15T00:08:53.770Z,1023.03
2019-05-15T00:09:53.778Z,1023.00
2019-05-15T00:10:53.785Z,1022.97
2019-05-15T00:11:53.746Z,1022.96
2019-05-15T00:12:54.104Z,1022.96
2019-05-15T00:13:53.674Z,1022.94
2019-05-15T00:14:53.766Z,1022.99
2019-05-15T00:15:53.654Z,1022.98
2019-05-15T00:16:53.710Z,1022.89
2019-05-15T00:17:53.687Z,1022.87
2019-05-15T00:18:53.612Z,1022.90
2019-05-15T00:19:53.595Z,1022.90
2019-05-15T00:20:53.587Z,1022.91
2019-05-15T00:21:53.574Z,1022.91
2019-05-15T00:22:53.603Z,1022.90
2019-05-15T00:23:53.588Z,1022.85
2019-05-15T00:24:53.537Z,1022.87
2019-05-15T00:25:53.534Z,1022.84
2019-05-15T00:26:53.518Z,1022.89
2019-05-15T00:27:53.553Z,1022.85
2019-05-15T00:28:53.505Z,1022.86
2019-05-15T00:29:53.491Z,1022.84
2019-05-15T00:30:53.480Z,1022.87
2019-05-15T00:31:53.473Z,1022.90
2019-05-15T00:32:53.489Z,1022.91
2019-05-15T00:33:53.482Z,1022.94
2019-05-15T00:34:53.428Z,1022.89
2019-05-15T00:35:53.415Z,1022.89
2019-05-15T00:36:53.400Z,1022.90
2019-05-15T00:37:53.387Z,1022.91
2019-05-15T00:38:53.407Z,1022.83
2019-05-15T00:39:53.372Z,1022.89
2019-05-15T00:40:53.360Z,1022.85
2019-05-15T00:41:54.755Z,1022.84
2019-05-15T00:42:53.374Z,1022.87
2019-05-15T00:43:53.328Z,1022.86
2019-05-15T00:44:53.330Z,1022.86
2019-05-15T00:45:53.300Z,1022.81
2019-05-15T00:46:53.292Z,1022.84
2019-05-15T00:47:53.280Z,1022.82
2019-05-15T00:48:53.302Z,1022.84
2019-05-15T00:49:53.261Z,1022.86
2019-05-15T00:50:53.243Z,1022.87
2019-05-15T00:51:53.233Z,1022.84
2019-05-15T00:52:53.232Z,1022.86
2019-05-15T00:53:53.241Z,1022.85
2019-05-15T00:54:53.207Z,1022.83
2019-05-15T00:55:53.196Z,1022.82
2019-05-15T00:56:53.181Z,1022.89
2019-05-15T00:57:53.169Z,1022.86
2019-05-15T00:58:53.192Z,1022.88
2019-05-15T00:59:53.146Z,1022.89
2019-05-15T01:00:53.185Z,1022.90
2019-05-15T01:01:53.131Z,1022.89
2019-05-15T01:02:53.149Z,1022.87
2019-05-15T01:03:53.108Z,1022.84
2019-05-15T01:04:53.100Z,1022.82
2019-05-15T01:05:53.086Z,1022.83
2019-05-15T01:06:53.089Z,1022.84
2019-05-15T01:07:53.086Z,1022.84
2019-05-15T01:08:53.083Z,1022.78
2019-05-15T01:09:53.038Z,1022.80
2019-05-15T01:10:53.025Z,1022.81
2019-05-15T01:11:53.026Z,1022.81
2019-05-15T01:12:53.010Z,1022.74
2019-05-15T01:13:53.034Z,1022.72
2019-05-15T01:14:52.988Z,1022.78
2019-05-15T01:15:52.977Z,1022.77
2019-05-15T01:16:52.963Z,1022.71
2019-05-15T01:17:52.957Z,1022.76
2019-05-15T01:18:52.978Z,1022.71
2019-05-15T01:19:52.933Z,1022.68
2019-05-15T01:20:52.924Z,1022.64
2019-05-15T01:21:53.065Z,1022.67
2019-05-15T01:22:52.974Z,1022.66
2019-05-15T01:23:52.992Z,1022.62
2019-05-15T01:24:52.895Z,1022.59
2019-05-15T01:25:52.927Z,1022.60
2019-05-15T01:26:52.920Z,1022.62
2019-05-15T01:27:52.864Z,1022.60
2019-05-15T01:28:52.879Z,1022.54
2019-05-15T01:29:52.831Z,1022.60
2019-05-15T01:30:52.825Z,1022.56
2019-05-15T01:31:52.810Z,1022.55
2019-05-15T01:32:52.823Z,1022.53
2019-05-15T01:33:52.792Z,1022.53
2019-05-15T01:34:52.802Z,1022.55
2019-05-15T01:35:52.760Z,1022.52
2019-05-15T01:36:52.743Z,1022.58
2019-05-15T01:37:52.762Z,1022.60
2019-05-15T01:38:52.759Z,1022.58
2019-05-15T01:39:52.750Z,1022.57
2019-05-15T01:40:52.701Z,1022.53
2019-05-15T01:41:52.686Z,1022.50
2019-05-15T01:42:52.677Z,1022.52
2019-05-15T01:43:52.668Z,1022.55
2019-05-15T01:44:52.661Z,1022.49
2019-05-15T01:45:52.687Z,1022.50
2019-05-15T01:46:52.640Z,1022.50
2019-05-15T01:47:52.629Z,1022.52
2019-05-15T01:48:52.649Z,1022.51
2019-05-15T01:49:52.604Z,1022.54
2019-05-15T01:50:52.594Z,1022.44
2019-05-15T01:51:52.580Z,1022.48
2019-05-15T01:52:52.578Z,1022.42
2019-05-15T01:53:52.596Z,1022.46
2019-05-15T01:54:52.554Z,1022.50
2019-05-15T01:55:52.543Z,1022.45
2019-05-15T01:56:52.541Z,1022.46
2019-05-15T01:57:52.521Z,1022.44
2019-05-15T01:58:52.530Z,1022.40
2019-05-15T01:59:57.085Z,1022.41
2019-05-15T02:00:53.519Z,1022.41
2019-05-15T02:01:52.473Z,1022.42
2019-05-15T02:02:52.461Z,1022.36
2019-05-15T02:03:52.452Z,1022.40
2019-05-15T02:04:52.444Z,1022.38
2019-05-15T02:05:52.463Z,1022.38
2019-05-15T02:06:52.424Z,1022.37
2019-05-15T02:07:52.429Z,1022.38
2019-05-15T02:08:52.395Z,1022.37
2019-05-15T02:09:52.383Z,1022.38
2019-05-15T02:10:52.409Z,1022.33
2019-05-15T02:11:52.366Z,1022.34
2019-05-15T02:12:52.351Z,1022.32
2019-05-15T02:13:52.375Z,1022.38
2019-05-15T02:14:52.331Z,1022.35
2019-05-15T02:15:52.318Z,1022.32
2019-05-15T02:16:52.315Z,1022.30
2019-05-15T02:17:52.302Z,1022.33
2019-05-15T02:18:52.311Z,1022.37
2019-05-15T02:19:52.280Z,1022.31
2019-05-15T02:20:52.298Z,1022.31
2019-05-15T02:21:52.254Z,1022.29
2019-05-15T02:22:52.244Z,1022.32
2019-05-15T02:23:52.265Z,1022.31
2019-05-15T02:24:52.230Z,1022.29
2019-05-15T02:25:52.215Z,1022.29
2019-05-15T02:26:52.220Z,1022.27
2019-05-15T02:27:52.189Z,1022.23
2019-05-15T02:28:52.215Z,1022.26
2019-05-15T02:29:52.173Z,1022.24
2019-05-15T02:30:52.161Z,1022.25
2019-05-15T02:31:52.184Z,1022.26
2019-05-15T02:32:52.136Z,1022.27
2019-05-15T02:33:52.128Z,1022.23
2019-05-15T02:34:52.127Z,1022.20
2019-05-15T02:35:52.107Z,1022.20
2019-05-15T02:36:52.092Z,1022.19
2019-05-15T02:37:52.114Z,1022.17
2019-05-15T02:38:52.070Z,1022.17
2019-05-15T02:39:52.069Z,1022.15
2019-05-15T02:40:52.054Z,1022.18
2019-05-15T02:41:52.044Z,1022.21
2019-05-15T02:42:52.052Z,1022.23
2019-05-15T02:43:52.018Z,1022.16
2019-05-15T02:44:52.021Z,1022.22
2019-05-15T02:45:52.010Z,1022.24
2019-05-15T02:46:51.992Z,1022.24
2019-05-15T02:47:52.009Z,1022.24
2019-05-15T02:48:51.983Z,1022.18
2019-05-15T02:49:51.954Z,1022.22
2019-05-15T02:50:51.942Z,1022.17
2019-05-15T02:51:51.930Z,1022.15
2019-05-15T02:52:51.953Z,1022.22
2019-05-15T02:53:51.931Z,1022.22
2019-05-15T02:54:51.919Z,1022.22
2019-05-15T02:55:51.895Z,1022.18
2019-05-15T02:56:51.884Z,1022.21
2019-05-15T02:57:51.888Z,1022.20
2019-05-15T02:58:51.863Z,1022.22
2019-05-15T02:59:51.897Z,1022.25
2019-05-15T03:00:53.515Z,1022.19
2019-05-15T03:01:51.824Z,1022.21
2019-05-15T03:02:51.846Z,1022.19
2019-05-15T03:03:51.834Z,1022.21
2019-05-15T03:04:51.795Z,1022.18
2019-05-15T03:05:51.784Z,1022.19
2019-05-15T03:06:51.776Z,1022.21
2019-05-15T03:07:51.799Z,1022.18
2019-05-15T03:08:51.748Z,1022.17
2019-05-15T03:09:51.738Z,1022.15
2019-05-15T03:10:51.728Z,1022.16
2019-05-15T03:11:51.717Z,1022.17
2019-05-15T03:12:51.713Z,1022.17
2019-05-15T03:13:51.733Z,1022.17
2019-05-15T03:14:51.685Z,1022.17
2019-05-15T03:15:51.677Z,1022.19
2019-05-15T03:16:51.669Z,1022.18
2019-05-15T03:17:51.660Z,1022.13
2019-05-15T03:18:55.580Z,1022.18
2019-05-15T03:19:51.652Z,1022.19
2019-05-15T03:20:51.624Z,1022.17
2019-05-15T03:21:51.610Z,1022.19
2019-05-15T03:22:51.601Z,1022.21
2019-05-15T03:23:51.623Z,1022.23
2019-05-15T03:24:51.615Z,1022.20
2019-05-15T03:25:51.579Z,1022.18
2019-05-15T03:26:51.577Z,1022.19
2019-05-15T03:27:51.555Z,1022.18
2019-05-15T03:28:51.537Z,1022.18
2019-05-15T03:29:51.548Z,1022.20
2019-05-15T03:31:15.647Z,1022.21
2019-05-15T03:32:07.479Z,1022.22
2019-05-15T03:33:00.758Z,1022.19
2019-05-15T03:33:54.720Z,1022.24
2019-05-15T03:34:56.116Z,1022.24
2019-05-15T03:35:54.476Z,1022.18
2019-05-15T03:36:53.001Z,1022.20
2019-05-15T03:37:51.449Z,1022.19
2019-05-15T03:38:51.438Z,1022.19
2019-05-15T03:39:52.051Z,1022.19
2019-05-15T03:40:51.409Z,1022.19
2019-05-15T03:41:51.413Z,1022.17
2019-05-15T03:42:51.398Z,1022.19
2019-05-15T03:43:51.383Z,1022.19
2019-05-15T03:44:51.374Z,1022.16
2019-05-15T03:45:51.403Z,1022.17
2019-05-15T03:46:51.347Z,1022.21
2019-05-15T03:47:51.343Z,1022.16
2019-05-15T03:48:51.334Z,1022.19
2019-05-15T03:49:51.323Z,1022.15
2019-05-15T03:50:51.357Z,1022.15
2019-05-15T03:51:51.300Z,1022.16
2019-05-15T03:52:51.285Z,1022.16
2019-05-15T03:53:51.275Z,1022.12
2019-05-15T03:54:51.284Z,1022.16
2019-05-15T03:55:51.284Z,1022.16
2019-05-15T03:56:51.249Z,1022.16
2019-05-15T03:57:51.241Z,1022.13
2019-05-15T03:58:51.225Z,1022.15
2019-05-15T03:59:51.229Z,1022.17
2019-05-15T04:00:51.238Z,1022.14
2019-05-15T04:01:51.202Z,1022.14
2019-05-15T04:02:51.186Z,1022.14
2019-05-15T04:03:51.177Z,1022.16
2019-05-15T04:04:51.158Z,1022.13
2019-05-15T04:05:51.172Z,1022.14
2019-05-15T04:06:51.153Z,1022.14
2019-05-15T04:07:51.129Z,1022.14
2019-05-15T04:08:51.126Z,1022.13
2019-05-15T04:09:51.109Z,1022.12
2019-05-15T04:10:51.119Z,1022.16
2019-05-15T04:11:51.086Z,1022.15
2019-05-15T04:12:51.070Z,1022.15
2019-05-15T04:13:51.062Z,1022.14
2019-05-15T04:14:51.085Z,1022.14
2019-05-15T04:15:51.040Z,1022.15
2019-05-15T04:16:51.061Z,1022.14
2019-05-15T04:17:51.024Z,1022.07
2019-05-15T04:18:51.017Z,1022.10
2019-05-15T04:19:51.030Z,1022.15
2019-05-15T04:20:51.034Z,1022.13
2019-05-15T04:21:50.990Z,1022.13
2019-05-15T04:22:50.978Z,1022.12
2019-05-15T04:23:50.964Z,1022.17
2019-05-15T04:24:50.941Z,1022.13
2019-05-15T04:25:50.935Z,1022.14
2019-05-15T04:26:50.953Z,1022.12
2019-05-15T04:27:50.909Z,1022.11
2019-05-15T04:28:50.904Z,1022.11
2019-05-15T04:29:50.950Z,1022.13
2019-05-15T04:30:50.936Z,1022.12
2019-05-15T04:32:00.585Z,1022.09
2019-05-15T04:32:51.910Z,1022.10
2019-05-15T04:33:50.913Z,1022.07
2019-05-15T04:34:50.890Z,1022.05
2019-05-15T04:35:50.903Z,1022.06
2019-05-15T04:36:50.920Z,1022.04
2019-05-15T04:37:50.848Z,1022.03
2019-05-15T04:38:50.849Z,1022.04
2019-05-15T04:39:50.838Z,1022.01
2019-05-15T04:40:50.858Z,1021.99
2019-05-15T04:41:50.876Z,1022.02
2019-05-15T04:42:50.809Z,1022.00
2019-05-15T04:43:50.795Z,1022.02
2019-05-15T04:44:50.800Z,1021.98
2019-05-15T04:45:50.820Z,1021.99
2019-05-15T04:46:50.810Z,1021.98
2019-05-15T04:47:50.754Z,1022.02
2019-05-15T04:48:50.888Z,1022.02
2019-05-15T04:49:50.736Z,1022.04
2019-05-15T04:50:50.709Z,1022.01
2019-05-15T04:51:50.763Z,1022.05
2019-05-15T04:52:50.701Z,1022.07
2019-05-15T04:53:50.722Z,1022.00
2019-05-15T04:54:50.679Z,1022.06
2019-05-15T04:55:50.671Z,1022.05
2019-05-15T04:56:51.207Z,1022.04
2019-05-15T04:57:50.635Z,1022.01
2019-05-15T04:58:51.262Z,1022.06
2019-05-15T04:59:50.628Z,1022.03
2019-05-15T05:00:50.760Z,1022.03
2019-05-15T05:01:53.343Z,1022.04
2019-05-15T05:02:51.605Z,1022.04
2019-05-15T05:03:50.592Z,1021.99
2019-05-15T05:04:50.572Z,1022.03
2019-05-15T05:05:50.670Z,1022.00
2019-05-15T05:06:50.611Z,1021.99
2019-05-15T05:07:50.547Z,1022.02
2019-05-15T05:08:50.521Z,1022.00
2019-05-15T05:09:50.523Z,1022.02
2019-05-15T05:10:50.511Z,1022.03
2019-05-15T05:11:50.454Z,1022.05
2019-05-15T05:12:51.017Z,1022.05
2019-05-15T05:13:51.779Z,1022.03
2019-05-15T05:14:50.404Z,1022.02
2019-05-15T05:15:50.785Z,1022.04
2019-05-15T05:16:50.433Z,1022.06
2019-05-15T05:17:50.369Z,1022.04
2019-05-15T05:18:50.356Z,1021.98
2019-05-15T05:19:51.414Z,1021.98
2019-05-15T05:20:50.342Z,1021.96
2019-05-15T05:21:50.362Z,1021.98
2019-05-15T05:22:50.313Z,1021.98
2019-05-15T05:23:50.305Z,1021.99
2019-05-15T05:24:50.298Z,1022.01
2019-05-15T05:25:50.286Z,1022.00
2019-05-15T05:26:50.310Z,1022.04
2019-05-15T05:27:50.266Z,1022.05
2019-05-15T05:28:50.255Z,1022.02
2019-05-15T05:29:50.238Z,1022.01
2019-05-15T05:30:50.229Z,1022.04
2019-05-15T05:31:50.250Z,1022.03
2019-05-15T05:32:50.213Z,1022.08
2019-05-15T05:33:50.201Z,1022.04
2019-05-15T05:34:50.193Z,1022.04
2019-05-15T05:35:50.179Z,1022.01
2019-05-15T05:36:50.164Z,1022.02
2019-05-15T05:37:50.186Z,1022.03
2019-05-15T05:38:50.149Z,1021.98
2019-05-15T05:39:50.137Z,1021.98
2019-05-15T05:40:50.269Z,1021.99
2019-05-15T05:41:50.143Z,1022.02
2019-05-15T05:42:50.101Z,1021.98
2019-05-15T05:43:50.088Z,1022.00
2019-05-15T05:44:50.099Z,1022.02
2019-05-15T05:45:50.103Z,1022.00
2019-05-15T05:46:50.063Z,1021.98
2019-05-15T05:47:50.075Z,1022.05
2019-05-15T05:48:50.040Z,1022.03
2019-05-15T05:49:50.025Z,1022.05
2019-05-15T05:50:50.336Z,1022.03
2019-05-15T05:51:50.004Z,1022.05
2019-05-15T05:52:50.029Z,1022.04
2019-05-15T05:53:50.600Z,1022.01
2019-05-15T05:54:50.002Z,1022.02
2019-05-15T05:55:52.920Z,1022.02
2019-05-15T05:56:49.980Z,1022.00
2019-05-15T05:57:50.175Z,1021.95
2019-05-15T05:58:49.933Z,1022.03
2019-05-15T05:59:49.925Z,1022.02
2019-05-15T06:00:49.965Z,1021.99
2019-05-15T06:01:49.898Z,1021.87
2019-05-15T06:02:52.315Z,1021.88
2019-05-15T06:03:49.876Z,1021.87
2019-05-15T06:04:49.868Z,1021.84
2019-05-15T06:05:50.070Z,1021.84
2019-05-15T06:07:06.037Z,1021.90
2019-05-15T06:07:51.182Z,1021.92
2019-05-15T06:08:49.820Z,1021.88
2019-05-15T06:09:49.809Z,1021.87
2019-05-15T06:10:50.097Z,1021.91
2019-05-15T06:11:49.829Z,1021.89
2019-05-15T06:12:49.836Z,1021.94
2019-05-15T06:13:52.449Z,1021.91
2019-05-15T06:14:49.756Z,1021.90
2019-05-15T06:15:49.747Z,1021.91
2019-05-15T06:16:49.739Z,1021.92
2019-05-15T06:17:49.760Z,1021.92
2019-05-15T06:18:49.719Z,1021.90
2019-05-15T06:19:49.708Z,1021.99
2019-05-15T06:20:50.124Z,1021.96
2019-05-15T06:21:56.741Z,1021.97
2019-05-15T06:22:50.736Z,1021.96
2019-05-15T06:23:55.781Z,1022.00
2019-05-15T06:24:50.658Z,1021.96
2019-05-15T06:25:49.662Z,1022.01
2019-05-15T06:26:49.629Z,1021.98
2019-05-15T06:27:49.641Z,1022.00
2019-05-15T06:28:49.614Z,1021.93
2019-05-15T06:29:49.602Z,1021.96
2019-05-15T06:30:49.718Z,1021.95
2019-05-15T06:31:49.583Z,1021.97
2019-05-15T06:33:04.457Z,1021.94
2019-05-15T06:33:50.555Z,1021.96
2019-05-15T06:34:49.545Z,1021.93
2019-05-15T06:35:49.545Z,1021.97
2019-05-15T06:36:49.565Z,1021.97
2019-05-15T06:37:49.549Z,1021.87
2019-05-15T06:38:49.508Z,1021.88
2019-05-15T06:39:49.577Z,1021.86
2019-05-15T06:40:49.490Z,1021.86
2019-05-15T06:41:49.470Z,1021.90
2019-05-15T06:42:49.497Z,1021.90
2019-05-15T06:43:49.806Z,1021.89
2019-05-15T06:44:49.629Z,1021.95
2019-05-15T06:45:49.632Z,1021.91
2019-05-15T06:46:49.560Z,1021.93
2019-05-15T06:47:49.440Z,1021.81
2019-05-15T06:48:49.507Z,1021.84
2019-05-15T06:49:49.467Z,1021.87
2019-05-15T06:50:49.561Z,1021.88
2019-05-15T06:51:49.431Z,1021.83
2019-05-15T06:52:49.465Z,1021.82
2019-05-15T06:53:49.415Z,1021.83
2019-05-15T06:54:49.387Z,1021.83
2019-05-15T06:55:49.385Z,1021.81
2019-05-15T06:56:49.476Z,1021.78
2019-05-15T06:57:49.438Z,1021.82
2019-05-15T06:58:49.308Z,1021.80
2019-05-15T06:59:49.329Z,1021.79
2019-05-15T07:00:49.752Z,1021.81
2019-05-15T07:01:49.378Z,1021.73
2019-05-15T07:02:49.378Z,1021.71
2019-05-15T07:03:49.315Z,1021.74
2019-05-15T07:04:49.292Z,1021.71
2019-05-15T07:05:50.596Z,1021.70
2019-05-15T07:06:49.267Z,1021.68
2019-05-15T07:07:49.252Z,1021.67
2019-05-15T07:08:49.879Z,1021.64
2019-05-15T07:09:49.236Z,1021.62
2019-05-15T07:10:49.246Z,1021.60
2019-05-15T07:11:49.212Z,1021.60
2019-05-15T07:12:51.552Z,1021.58
2019-05-15T07:13:49.240Z,1021.55
2019-05-15T07:14:49.165Z,1021.56
2019-05-15T07:15:49.851Z,1021.58
2019-05-15T07:16:49.168Z,1021.57
2019-05-15T07:17:49.157Z,1021.56
2019-05-15T07:18:49.403Z,1021.59
2019-05-15T07:19:49.124Z,1021.54
2019-05-15T07:20:49.278Z,1021.55
2019-05-15T07:21:49.099Z,1021.63
2019-05-15T07:22:49.284Z,1021.51
2019-05-15T07:23:49.780Z,1021.54
2019-05-15T07:24:49.046Z,1021.53
2019-05-15T07:25:50.008Z,1021.53
2019-05-15T07:26:49.094Z,1021.52
2019-05-15T07:27:49.019Z,1021.47
2019-05-15T07:28:49.080Z,1021.41
2019-05-15T07:29:49.005Z,1021.48
2019-05-15T07:30:49.697Z,1021.49
2019-05-15T07:31:48.929Z,1021.56
2019-05-15T07:32:48.933Z,1021.48
2019-05-15T07:33:49.339Z,1021.44
2019-05-15T07:34:48.975Z,1021.46
2019-05-15T07:35:49.610Z,1021.46
2019-05-15T07:36:49.412Z,1021.45
2019-05-15T07:37:48.868Z,1021.42
2019-05-15T07:38:48.890Z,1021.52
2019-05-15T07:39:48.999Z,1021.50
2019-05-15T07:40:55.681Z,1021.56
2019-05-15T07:41:49.829Z,1021.68
2019-05-15T07:42:49.207Z,1021.47
2019-05-15T07:43:50.606Z,1021.53
2019-05-15T07:44:48.794Z,1021.50
2019-05-15T07:45:53.558Z,1021.48
2019-05-15T07:46:49.872Z,1021.37
2019-05-15T07:47:49.075Z,1021.48
2019-05-15T07:48:49.266Z,1021.51
2019-05-15T07:49:49.294Z,1021.52
2019-05-15T07:50:49.754Z,1021.47
2019-05-15T07:51:48.999Z,1021.49
2019-05-15T07:52:48.719Z,1021.43
2019-05-15T07:53:49.170Z,1021.46
2019-05-15T07:54:48.919Z,1021.41
2019-05-15T07:55:50.258Z,1021.48
2019-05-15T07:56:48.959Z,1021.42
2019-05-15T07:57:49.656Z,1021.62
2019-05-15T07:58:52.571Z,1021.49
2019-05-15T07:59:48.632Z,1021.58
2019-05-15T08:00:49.325Z,1021.67
2019-05-15T08:01:49.015Z,1021.55
2019-05-15T08:02:48.598Z,1021.54
2019-05-15T08:03:58.971Z,1021.60
2019-05-15T08:04:49.581Z,1021.62
2019-05-15T08:05:58.654Z,1021.71
2019-05-15T08:06:49.627Z,1021.85
2019-05-15T08:07:49.133Z,1021.90
2019-05-15T08:08:48.846Z,1021.87
2019-05-15T08:09:48.799Z,1021.96
2019-05-15T08:10:49.207Z,1021.94
2019-05-15T08:11:48.849Z,1021.99
2019-05-15T08:12:49.438Z,1021.83
2019-05-15T08:13:48.761Z,1021.75
2019-05-15T08:14:50.867Z,1021.71
2019-05-15T08:15:48.981Z,1021.68
2019-05-15T08:16:48.676Z,1021.64
2019-05-15T08:18:49.429Z,1021.78
2019-05-15T08:19:48.734Z,1021.73
2019-05-15T08:20:49.213Z,1021.75
2019-05-15T08:21:51.789Z,1021.70
2019-05-15T08:22:49.054Z,1021.77
2019-05-15T08:23:48.649Z,1021.68
2019-05-15T08:24:48.524Z,1021.77
2019-05-15T08:25:48.757Z,1021.71
2019-05-15T08:26:05.717Z,1021.61
2019-05-15T08:26:48.775Z,1021.79
2019-05-15T08:27:48.628Z,1021.86
2019-05-15T08:28:48.861Z,1021.90
2019-05-15T08:29:48.700Z,1022.05
2019-05-15T08:30:49.307Z,1021.80
2019-05-15T08:31:48.553Z,1021.63
2019-05-15T08:32:51.361Z,1021.55
2019-05-15T08:33:48.365Z,1021.56
2019-05-15T08:34:48.260Z,1021.49
2019-05-15T08:35:51.579Z,1021.50
2019-05-15T08:36:48.459Z,1021.50
2019-05-15T08:37:49.046Z,1021.52
2019-05-15T08:38:48.729Z,1021.56
2019-05-15T08:39:48.752Z,1021.58
2019-05-15T08:40:49.001Z,1021.57
2019-05-15T08:41:48.555Z,1021.51
2019-05-15T08:42:56.525Z,1021.43
2019-05-15T08:43:49.171Z,1021.53
2019-05-15T08:44:48.976Z,1021.50
2019-05-15T08:45:49.751Z,1021.57
2019-05-15T08:46:48.220Z,1021.54
2019-05-15T08:47:49.204Z,1021.52
2019-05-15T08:48:49.091Z,1021.48
2019-05-15T08:49:48.469Z,1021.50
2019-05-15T08:50:48.968Z,1021.63
2019-05-15T08:51:48.654Z,1021.56
2019-05-15T08:52:48.812Z,1021.57
2019-05-15T08:53:48.779Z,1021.47
2019-05-15T08:54:48.603Z,1021.37
2019-05-15T08:55:48.234Z,1021.38
2019-05-15T08:56:48.539Z,1021.35
2019-05-15T08:57:55.615Z,1021.33
2019-05-15T08:58:49.050Z,1021.27
2019-05-15T08:59:48.808Z,1021.29
2019-05-15T09:00:52.303Z,1021.35
2019-05-15T09:01:48.936Z,1021.31
2019-05-15T09:02:48.824Z,1021.38
2019-05-15T09:03:48.879Z,1021.34
2019-05-15T09:04:48.676Z,1021.22
2019-05-15T09:05:48.713Z,1021.17
2019-05-15T09:06:49.739Z,1021.21
2019-05-15T09:07:48.712Z,1021.28
2019-05-15T09:08:49.097Z,1021.32
2019-05-15T09:09:48.732Z,1021.25
2019-05-15T09:10:50.232Z,1021.13
2019-05-15T09:11:48.382Z,1021.17
2019-05-15T09:12:50.200Z,1021.24
2019-05-15T09:13:53.805Z,1021.73
2019-05-15T09:14:48.867Z,1021.48
2019-05-15T09:15:48.286Z,1021.29
2019-05-15T09:16:49.021Z,1021.14
2019-05-15T09:17:48.773Z,1021.13
2019-05-15T09:18:48.595Z,1021.14
2019-05-15T09:19:48.275Z,1021.15
2019-05-15T09:20:49.153Z,1021.13
2019-05-15T09:21:49.120Z,1021.33
2019-05-15T09:22:49.062Z,1021.41
2019-05-15T09:23:49.812Z,1021.60
2019-05-15T09:24:48.887Z,1021.70
2019-05-15T09:25:49.293Z,1021.25
2019-05-15T09:26:48.748Z,1021.46
2019-05-15T09:27:48.792Z,1021.25
2019-05-15T09:28:49.389Z,1021.27
2019-05-15T09:29:48.444Z,1021.25
2019-05-15T09:30:48.299Z,1021.26
2019-05-15T09:31:48.280Z,1021.25
2019-05-15T09:32:48.425Z,1021.57
2019-05-15T09:33:49.266Z,1021.62
2019-05-15T09:34:54.205Z,1021.75
2019-05-15T09:35:49.219Z,1021.51
2019-05-15T09:36:48.617Z,1021.12
2019-05-15T09:37:48.851Z,1021.03
2019-05-15T09:38:49.148Z,1021.02
2019-05-15T09:39:48.981Z,1021.04
2019-05-15T09:40:50.156Z,1021.17
2019-05-15T09:41:48.754Z,1021.51
2019-05-15T09:42:48.715Z,1021.09
2019-05-15T09:43:48.509Z,1021.00
2019-05-15T09:44:48.660Z,1020.99
2019-05-15T09:45:49.259Z,1020.93
2019-05-15T09:46:48.868Z,1020.99
2019-05-15T09:47:48.320Z,1021.06
2019-05-15T09:48:51.403Z,1021.02
2019-05-15T09:49:48.519Z,1020.95
2019-05-15T09:50:49.229Z,1020.92
2019-05-15T09:51:49.045Z,1020.87
2019-05-15T09:52:50.116Z,1020.78
2019-05-15T09:53:48.403Z,1020.72
2019-05-15T09:54:49.059Z,1020.83
2019-05-15T09:55:49.365Z,1020.83
2019-05-15T09:56:49.405Z,1020.74
2019-05-15T09:57:49.119Z,1020.73
2019-05-15T09:58:48.797Z,1020.79
2019-05-15T09:59:48.789Z,1020.71
2019-05-15T10:00:52.336Z,1020.63
2019-05-15T10:01:48.467Z,1020.67
2019-05-15T10:02:48.518Z,1020.83
2019-05-15T10:03:48.463Z,1020.61
2019-05-15T10:04:49.590Z,1020.53
2019-05-15T10:05:48.461Z,1020.64
2019-05-15T10:06:48.606Z,1020.48
2019-05-15T10:07:47.340Z,1020.51
2019-05-15T10:08:49.016Z,1020.54
2019-05-15T10:09:48.783Z,1020.47
2019-05-15T10:10:48.731Z,1020.46
2019-05-15T10:11:49.178Z,1020.47
2019-05-15T10:12:49.480Z,1020.51
2019-05-15T10:13:47.246Z,1020.45
2019-05-15T10:14:49.181Z,1020.56
2019-05-15T10:15:50.653Z,1020.53
2019-05-15T10:16:48.623Z,1020.48
2019-05-15T10:17:50.763Z,1020.57
2019-05-15T10:18:50.812Z,1020.50
2019-05-15T10:19:48.804Z,1020.47
2019-05-15T10:20:47.173Z,1020.42
2019-05-15T10:21:53.044Z,1020.41
2019-05-15T10:22:48.471Z,1020.44
2019-05-15T10:23:49.401Z,1020.38
2019-05-15T10:24:50.889Z,1020.37
2019-05-15T10:25:48.573Z,1020.36
2019-05-15T10:26:49.047Z,1020.35
2019-05-15T10:27:48.768Z,1020.34
2019-05-15T10:28:49.333Z,1020.28
2019-05-15T10:29:48.435Z,1020.33
2019-05-15T10:30:49.339Z,1020.36
2019-05-15T10:31:48.244Z,1020.25
2019-05-15T10:32:48.681Z,1020.24
2019-05-15T10:33:49.118Z,1020.17
2019-05-15T10:34:47.062Z,1020.16
2019-05-15T10:35:47.014Z,1020.17
2019-05-15T10:36:49.375Z,1020.22
2019-05-15T10:37:48.707Z,1020.17
2019-05-15T10:38:48.893Z,1020.14
2019-05-15T10:39:52.076Z,1020.16
2019-05-15T10:41:00.206Z,1020.17
2019-05-15T10:41:48.324Z,1020.11
2019-05-15T10:42:49.453Z,1020.17
2019-05-15T10:43:55.632Z,1020.13
2019-05-15T10:44:48.800Z,1020.09
2019-05-15T10:45:50.115Z,1020.04
2019-05-15T10:46:48.254Z,1020.07
2019-05-15T10:47:49.400Z,1020.02
2019-05-15T10:48:49.401Z,1019.98
2019-05-15T10:49:48.415Z,1020.00
2019-05-15T10:50:46.885Z,1019.98
2019-05-15T10:51:46.838Z,1019.94
2019-05-15T10:52:48.938Z,1019.97
2019-05-15T10:53:48.714Z,1019.86
2019-05-15T10:54:46.810Z,1019.93
2019-05-15T10:55:49.226Z,1019.94
2019-05-15T10:56:46.787Z,1019.89
2019-05-15T10:57:46.799Z,1019.94
2019-05-15T10:58:50.128Z,1019.88
2019-05-15T10:59:47.799Z,1019.89
2019-05-15T11:00:49.274Z,1019.90
2019-05-15T11:01:48.772Z,1019.88
2019-05-15T11:02:48.879Z,1019.83
2019-05-15T11:03:49.250Z,1019.85
2019-05-15T11:04:48.721Z,1019.84
2019-05-15T11:05:48.953Z,1019.92
2019-05-15T11:06:48.875Z,1019.84
2019-05-15T11:07:48.228Z,1019.81
2019-05-15T11:08:51.000Z,1019.79
2019-05-15T11:09:48.957Z,1019.82
2019-05-15T11:10:49.427Z,1019.80
2019-05-15T11:11:48.674Z,1019.71
2019-05-15T11:12:46.635Z,1019.65
2019-05-15T11:13:46.612Z,1019.63
2019-05-15T11:14:46.593Z,1019.67
2019-05-15T11:15:48.876Z,1019.67
2019-05-15T11:16:48.696Z,1019.63
2019-05-15T11:17:48.961Z,1019.64
2019-05-15T11:18:48.196Z,1019.66
2019-05-15T11:19:49.919Z,1019.65
2019-05-15T11:20:48.691Z,1019.66
2019-05-15T11:21:48.545Z,1019.64
2019-05-15T11:22:49.643Z,1019.63
2019-05-15T11:23:49.198Z,1019.61
2019-05-15T11:24:48.706Z,1019.61
2019-05-15T11:25:48.473Z,1019.62
2019-05-15T11:26:49.649Z,1019.59
2019-05-15T11:27:48.384Z,1019.61
2019-05-15T11:28:49.422Z,1019.64
2019-05-15T11:29:47.772Z,1019.67
2019-05-15T11:30:48.924Z,1019.62
2019-05-15T11:31:48.602Z,1019.60
2019-05-15T11:32:48.706Z,1019.60
2019-05-15T11:33:49.096Z,1019.60
2019-05-15T11:34:49.099Z,1019.64
2019-05-15T11:35:57.884Z,1019.60
2019-05-15T11:36:48.243Z,1019.63
2019-05-15T11:37:48.873Z,1019.60
2019-05-15T11:38:48.609Z,1019.65
2019-05-15T11:39:47.225Z,1019.61
2019-05-15T11:40:46.313Z,1019.64
2019-05-15T11:41:49.019Z,1019.60
2019-05-15T11:42:48.573Z,1019.63
2019-05-15T11:43:46.282Z,1019.59
2019-05-15T11:44:48.419Z,1019.57
2019-05-15T11:45:48.209Z,1019.60
2019-05-15T11:46:46.250Z,1019.57
2019-05-15T11:47:48.260Z,1019.56
2019-05-15T11:48:46.235Z,1019.53
2019-05-15T11:49:46.231Z,1019.55
2019-05-15T11:50:46.213Z,1019.54
2019-05-15T11:51:46.205Z,1019.47
2019-05-15T11:52:46.216Z,1019.45
2019-05-15T11:53:46.174Z,1019.44
2019-05-15T11:54:46.165Z,1019.43
2019-05-15T11:55:48.147Z,1019.41
2019-05-15T11:56:48.722Z,1019.40
2019-05-15T11:57:50.370Z,1019.43
2019-05-15T11:58:47.132Z,1019.45
2019-05-15T11:59:48.528Z,1019.45
2019-05-15T12:00:48.991Z,1019.49
2019-05-15T12:01:46.090Z,1019.40
2019-05-15T12:02:46.094Z,1019.43
2019-05-15T12:03:46.100Z,1019.38
2019-05-15T12:04:46.061Z,1019.37
2019-05-15T12:05:46.050Z,1019.36